Ergebnisliste vom: 12.09.2015 - MŁhlbach2015 - 13,4 km

weitere Ergebnisse >>

Plg. Plm Plw StNr. Name,Vorname AKm AKw Ak GJ Verein Endzeit RŁckst.
1 1   603 Barth, Tom 1   M20 90 TuS Dippoldiswalde 0:54:04 0:00:00
2 2   652 Gertel, Christian 1   M40 74 Citylauf-Verein Dresden 0:58:47 0:04:43
3 3   637 Wittwer, Frank 1   M45 68 Dresden 0:59:35 0:05:31
4 4   632 Sittner, Falk 1   M30 81 Lauff√∂rdergruppe Gruna 1:01:24 0:07:20
5 5   656 Schmidt, Andr√© 1   M35 79 Erdinger Alkoholfrei 1:01:40 0:07:36
6 6   612 Kleider, Bernd 1   M55+ 57 TSV Dresden 1:03:40 0:09:36
7 7   608 J√ľrries, Frank 2   M45 69 Citylaufverein Dresden 1:03:44 0:09:40
8 8   655 Wensch, Stefan 2   M35 79 Dresden 1:04:54 0:10:50
9 9   640 B√∂hme, Kai 3   M45 70 LG Priestewitz 1:05:02 0:10:58
10 10   644 Sch√§fer, J√∂rg 4   M45 67 per pedes family Dresden 1:06:00 0:11:56
11 11   614 kn√∂fel, Detlef 1   M50 63 Mei√üen 1:08:22 0:14:18
12 12   654 H√∂richs, Gunther 2   M50 61 LSV Pirna 1:09:12 0:15:08
13 13   646 Schulze, Francis 2   M20 95 Skiklub Dresden-Niedersedlitz 1:09:38 0:15:34
14 14   610 Kaulfuss, Torsten 5   M45 68 LSV Pirna 1:10:37 0:16:33
15 15   661 K√§mpfe, Stefan 2   M30 84 Dresden 1:10:42 0:16:38
16 16   613 Kliemank, Konrad 3   M20 86 (Z)Wiesel 1:10:55 0:16:51
17 17   647 Sauer, Sten 6   M45 70 Heidenau 1:11:13 0:17:09
18 18   635 Thoss, Bodo 3   M50 65 Bodo&Peggy 1:11:21 0:17:17
19 19   620 Matz, J√ľrgen 2   M55+ 58 TSV Dresden 1:11:27 0:17:23
20 20   629 Schierack, Robert 4   M20 86 Team Freakshow 1:11:57 0:17:53
21 21   660 Vulpius, Stefan 5   M20 86 N7 / Dresden 1:12:19 0:18:15
22 22   630 Schliwa, Sebastian 3   M30 83 Team Tempus/SV Elbland Coswig Mei√üen 1:12:54 0:18:50
23 23   624 Pfeiffer, Holger 3   M55+ 58 MSV Meusegast 1:13:30 0:19:26
24 24   604 B√∂lter, Dirk 4   M50 61 Dresden Marathon e.V. 1:14:03 0:19:59
25 25   649 Griesbach, Peter 7   M45 67 Skiklub Dresden-Niedersedlitz 1:15:09 0:21:05
26 26   607 Grahl, Karsten 8   M45 70 Maxen 1:15:18 0:21:14
27 27   662 Strohbach, Gerd 5   M50 62 Wolfsrudel Pirna 1:15:27 0:21:23
28 28   619 Lohse, Dietmar 4   M55+ 60 Kletterverein Schmiedeberg 1:15:37 0:21:33
29 29   643 Feder, Hartmut 5   M55+ 60 SC Riesa 1:15:38 0:21:34
30 30   657 Winkelmann, Uwe 6   M55+ 57 Pratzschwitz 1:15:53 0:21:49
31   1 626 Radke, Claudia   1 WHK 87 LSV Pirna 1:15:58 0:21:54
32 31   627 Ro√überg, Hans-J√∂rg 7   M55+ 59 Dresden 1:16:58 0:22:54
33 32   645 Schmidt, Thomas 2   M40 71 VfL Dresden-B√ľhlau 1:17:32 0:23:28
34 33   641 Ramsdorf, Ingolf 6   M50 65 Schwimmverein Weixdsorf 1:17:57 0:23:53
35 34   625 Pietrzko, Steve 3   M35 78 pirna 1:18:23 0:24:19
36   2 638 Zange, Andrea   1 W50 62 Mei√üen 1:18:33 0:24:29
37 35   616 Krestew, Thomas 9   M45 66 SV Gr√ľn- Wei√ü Elstra/ Gersdorf 1:18:39 0:24:35
38 36   631 Schulz, Matthias 3   M40 74 Dresden 1:19:04 0:25:00
39 37   606 Fechner, Michael 7   M50 64 Dresdner Sportverein 1953 e.V. 1:19:54 0:25:50
40 38   642 Klammt, Uwe 8   M55+ 60 Dresden 1:20:19 0:26:15
41 39   602 Balk, Andreas 8   M50 61 SV Wacker Mohorn 1:20:48 0:26:44
42 40   651 Pohling, Marco 4   M40 74 VfL Dresden B√ľhlau 1:20:50 0:26:46
43 41   639 Zistel, J√∂rg 4   M35 79 Git los! 1:21:04 0:27:00
44 42   633 Spannaus, Thomas 5   M40 72 Team-Erdinger-Alkoholfrei 1:21:36 0:27:32
45 43   617 Kriese, Matthias 5   M35 77 SV Wacker Mohorn 1:22:34 0:28:30
46 44   648 Reichelt, Olaf 9   M50 65 Skiklub Dresden-Niedersedlitz 1:23:41 0:29:37
47 45   658 Reichelt, Sven 10   M45 70 Dresden 1:25:16 0:31:12
48 46   650 Berthold, Frank 6   M40 75 Oberelbe-Marathon 1:25:51 0:31:47
49 47   663 Karezewski, Zenon 9   M55+ 58 Dresdner Trolle 1:26:35 0:32:31
50   3 611 Kerkel, Jana   1 W35 76 LSV Pirna 1:26:46 0:32:42
51   4 634 Steglich, Peggy   1 W40 75 Bodo&Peggy 1:28:34 0:34:30
52   5 622 Palfi, Edelgard   1 W60 52 Citylaufverein Dresden 1:28:39 0:34:35
53 48   600 Arnold, Holger Norbert 11   M45 70 Gro√ür√∂hrsdorf 1:29:02 0:34:58
54 49   601 Arnold, Jakob 6   M20 96 digades Racing Team Zittau 1:29:03 0:34:59
55 50   659 Wick, Peter 10   M55+ 59 Weinb√∂hla 1:32:19 0:38:15
56 51   605 Dieckmann, Matthias 11   M55+ 57 Lau√ünitz 1:35:13 0:41:09
57   6 636 Wehner, Cornelia   1 W45 70 Laufszene Sachsen 1:35:59 0:41:55
58 52   621 Oeser, Konrad 12   M55+ 48 Friedewald 1:38:05 0:44:01
(c) 1990-2020 Blue Wonder Sport Promotion - Andreas Burow - Zeitnahme & Auswertung - www.Triathlon-Service.de